Time;durP1;ratioP1;P1;durP2;ratioP2;P2;SDS_P1;SDS_P2;PMS_P1;PMS_P2;Temp;Humidity;BMP_temperature;BMP_pressure;BME280_temperature;BME280_humidity;BME280_pressure;Samples;Min_cycle;Max_cycle;Signal;HPM_P1;HPM_P2
2023/04/09 00:00:31;;;;;;;24.20;16.67;;;19.70;49.60;;;;;;5067128;28;20445;-77
2023/04/09 00:02:59;;;;;;;26.70;17.83;;;19.70;49.60;;;;;;5069626;28;20455;-77
2023/04/09 00:05:27;;;;;;;27.23;18.33;;;19.60;49.60;;;;;;5060541;28;20537;-77
2023/04/09 00:07:56;;;;;;;26.57;18.10;;;19.70;49.60;;;;;;5066418;28;20479;-77
2023/04/09 00:10:23;;;;;;;26.00;17.00;;;19.60;49.60;;;;;;5072923;28;20469;-77
2023/04/09 00:12:52;;;;;;;25.70;17.50;;;19.70;49.60;;;;;;5065043;28;20439;-76
2023/04/09 00:15:20;;;;;;;25.70;17.33;;;19.70;49.70;;;;;;5068994;28;20433;-77
2023/04/09 00:17:58;;;;;;;28.77;16.83;;;19.60;49.60;;;;;;5066923;28;20437;-76
2023/04/09 00:20:26;;;;;;;28.80;18.47;;;19.60;49.50;;;;;;5070523;28;20481;-77
2023/04/09 00:22:55;;;;;;;30.07;19.10;;;19.60;49.90;;;;;;5072948;28;20441;-76
2023/04/09 00:25:23;;;;;;;26.27;17.77;;;19.60;49.60;;;;;;5072554;28;20445;-77
2023/04/09 00:27:52;;;;;;;26.63;17.33;;;19.60;49.70;;;;;;5072081;28;20466;-75
2023/04/09 00:30:20;;;;;;;28.80;18.77;;;19.60;49.60;;;;;;5070411;28;20450;-77
2023/04/09 00:32:48;;;;;;;28.13;17.90;;;19.60;49.60;;;;;;5071500;28;20446;-76
2023/04/09 00:35:17;;;;;;;28.50;17.53;;;19.60;49.60;;;;;;5067469;28;20476;-76
2023/04/09 00:37:45;;;;;;;28.23;18.63;;;19.60;50.30;;;;;;5065812;28;20421;-76
2023/04/09 00:40:13;;;;;;;26.43;18.63;;;19.60;49.70;;;;;;5071152;28;20449;-77
2023/04/09 00:42:41;;;;;;;27.40;18.60;;;19.60;49.60;;;;;;5068920;28;20438;-77
2023/04/09 00:45:11;;;;;;;26.43;17.80;;;19.60;49.70;;;;;;5071107;28;20453;-76
2023/04/09 00:47:39;;;;;;;25.57;18.03;;;19.50;49.60;;;;;;5068987;28;20476;-76
2023/04/09 00:50:08;;;;;;;29.57;19.67;;;19.50;49.40;;;;;;5071889;28;20461;-76
2023/04/09 00:52:36;;;;;;;26.60;17.70;;;19.50;49.60;;;;;;5070089;28;20465;-75
2023/04/09 00:55:05;;;;;;;25.60;17.40;;;19.50;49.60;;;;;;5076011;28;20444;-76
2023/04/09 00:57:33;;;;;;;33.50;18.40;;;19.50;49.60;;;;;;5070584;28;20457;-75
2023/04/09 01:00:02;;;;;;;28.80;18.40;;;19.50;49.60;;;;;;5071934;28;20453;-75
2023/04/09 01:02:31;;;;;;;25.77;18.30;;;19.50;49.60;;;;;;5069933;28;20957;-75
2023/04/09 01:04:59;;;;;;;29.23;19.07;;;19.40;49.50;;;;;;5072629;28;20446;-74
2023/04/09 01:07:35;;;;;;;24.93;17.50;;;19.50;49.60;;;;;;5080076;28;20560;-76
2023/04/09 01:10:08;;;;;;;26.97;19.13;;;19.50;49.60;;;;;;5068663;28;20493;-74
2023/04/09 01:12:39;;;;;;;30.60;17.53;;;19.50;49.60;;;;;;5066445;28;20445;-75
2023/04/09 01:15:08;;;;;;;25.20;18.20;;;19.40;49.50;;;;;;5070944;28;20448;-76
2023/04/09 01:17:41;;;;;;;29.20;19.07;;;19.40;49.60;;;;;;5066257;28;20448;-75
2023/04/09 01:20:11;;;;;;;28.70;18.43;;;19.40;49.60;;;;;;5071259;28;20481;-76
2023/04/09 01:22:49;;;;;;;29.87;19.80;;;19.40;49.60;;;;;;5060342;28;20442;-75
2023/04/09 01:25:23;;;;;;;28.07;18.93;;;19.40;49.50;;;;;;5063629;28;20449;-76
2023/04/09 01:27:56;;;;;;;26.00;18.03;;;19.40;49.60;;;;;;5070036;28;20461;-75
2023/04/09 01:30:25;;;;;;;25.67;17.80;;;19.40;49.60;;;;;;5060920;28;20449;-76
2023/04/09 01:32:53;;;;;;;29.33;18.50;;;19.30;49.50;;;;;;5064317;28;20453;-75
2023/04/09 01:35:21;;;;;;;27.53;19.20;;;19.40;49.60;;;;;;5060076;28;20510;-76
2023/04/09 01:37:49;;;;;;;30.43;19.73;;;19.30;49.50;;;;;;5067810;28;20456;-74
2023/04/09 01:40:17;;;;;;;31.10;20.10;;;19.30;49.50;;;;;;5074082;28;20449;-74
2023/04/09 01:42:46;;;;;;;30.07;19.53;;;19.30;49.50;;;;;;5073518;28;20457;-75
2023/04/09 01:45:14;;;;;;;28.67;17.83;;;19.30;49.50;;;;;;5067038;28;20456;-75
2023/04/09 01:47:43;;;;;;;29.03;18.83;;;19.30;49.50;;;;;;5069177;28;20472;-74
2023/04/09 01:50:11;;;;;;;25.07;17.70;;;19.30;49.40;;;;;;5065555;28;20452;-75
2023/04/09 01:52:39;;;;;;;31.30;19.33;;;19.30;49.50;;;;;;5067696;28;20444;-75
2023/04/09 01:55:08;;;;;;;29.00;18.30;;;19.30;49.50;;;;;;5070310;28;20439;-76
2023/04/09 01:57:35;;;;;;;29.33;19.03;;;19.30;49.60;;;;;;5069549;28;20446;-75
2023/04/09 02:00:04;;;;;;;29.00;19.07;;;19.20;49.50;;;;;;5067945;28;20474;-75
2023/04/09 02:02:35;;;;;;;32.90;20.60;;;19.20;49.50;;;;;;5066400;28;20455;-76
2023/04/09 02:05:06;;;;;;;31.40;19.40;;;19.20;49.50;;;;;;5066270;28;20433;-76
2023/04/09 02:07:37;;;;;;;30.60;18.87;;;19.20;49.50;;;;;;5089591;28;20468;-76
2023/04/09 02:10:05;;;;;;;31.33;19.13;;;19.20;49.50;;;;;;5075822;28;20981;-75
2023/04/09 02:12:33;;;;;;;33.10;20.90;;;19.20;49.60;;;;;;5082407;28;20457;-75
2023/04/09 02:15:02;;;;;;;29.87;19.00;;;19.20;49.60;;;;;;5072050;28;20483;-75
2023/04/09 02:17:30;;;;;;;31.13;20.50;;;19.20;49.60;;;;;;5074963;28;20493;-75
2023/04/09 02:19:57;;;;;;;29.53;19.20;;;19.10;49.50;;;;;;5075003;28;20475;-75
2023/04/09 02:22:27;;;;;;;29.70;20.17;;;19.20;49.60;;;;;;5070872;28;20442;-76
2023/04/09 02:24:55;;;;;;;31.00;18.80;;;19.20;49.50;;;;;;5074588;28;20457;-75
2023/04/09 02:27:23;;;;;;;27.20;19.30;;;19.10;49.40;;;;;;5071614;28;20441;-76
2023/04/09 02:29:51;;;;;;;30.67;20.27;;;19.10;49.50;;;;;;5072430;28;20469;-76
2023/04/09 02:32:18;;;;;;;26.77;19.00;;;19.10;49.40;;;;;;5068909;28;20454;-76
2023/04/09 02:34:46;;;;;;;33.10;20.03;;;19.10;49.50;;;;;;5076900;28;20441;-75
2023/04/09 02:37:14;;;;;;;30.00;18.70;;;19.10;49.50;;;;;;5070984;28;20473;-75
2023/04/09 02:39:44;;;;;;;27.70;20.30;;;19.10;49.40;;;;;;5068435;28;20469;-76
2023/04/09 02:42:12;;;;;;;27.40;18.33;;;19.00;49.40;;;;;;5069655;28;20446;-75
2023/04/09 02:44:40;;;;;;;34.80;20.77;;;19.10;49.50;;;;;;5074635;28;20450;-75
2023/04/09 02:47:08;;;;;;;32.17;19.67;;;19.10;49.50;;;;;;5070771;28;20448;-75
2023/04/09 02:49:36;;;;;;;26.90;18.50;;;19.10;49.50;;;;;;5078869;28;20480;-75
2023/04/09 02:52:03;;;;;;;27.23;18.63;;;19.00;49.30;;;;;;5074384;28;20456;-75
2023/04/09 02:54:31;;;;;;;28.50;19.67;;;19.00;49.30;;;;;;5072997;28;20449;-76
2023/04/09 02:57:01;;;;;;;28.67;19.70;;;19.10;49.40;;;;;;5070180;28;20451;-76
2023/04/09 02:59:31;;;;;;;29.80;19.40;;;19.00;49.40;;;;;;5067357;28;20457;-76
2023/04/09 03:01:59;;;;;;;33.07;20.50;;;19.00;49.40;;;;;;5074177;28;20456;-74
2023/04/09 03:04:27;;;;;;;28.67;19.77;;;19.00;49.40;;;;;;5073673;28;20545;-76
2023/04/09 03:06:55;;;;;;;27.80;19.50;;;19.00;49.40;;;;;;5071348;28;20469;-74
2023/04/09 03:09:23;;;;;;;28.70;19.13;;;19.00;49.40;;;;;;5072297;28;21008;-75
2023/04/09 03:11:51;;;;;;;30.30;20.70;;;19.00;49.30;;;;;;5071677;28;20458;-75
2023/04/09 03:14:20;;;;;;;32.13;20.47;;;19.00;49.30;;;;;;5058358;28;20449;-75
2023/04/09 03:16:48;;;;;;;28.50;18.93;;;19.00;49.40;;;;;;5073669;28;20464;-76
2023/04/09 03:19:16;;;;;;;30.17;20.33;;;19.00;49.40;;;;;;5064987;28;20458;-76
2023/04/09 03:21:45;;;;;;;30.50;20.37;;;18.90;49.30;;;;;;5068566;28;20524;-76
2023/04/09 03:24:12;;;;;;;32.67;20.07;;;18.90;49.30;;;;;;5073084;28;20438;-76
2023/04/09 03:26:40;;;;;;;32.20;20.40;;;18.90;49.40;;;;;;5071153;28;20438;-76
2023/04/09 03:29:08;;;;;;;31.17;20.53;;;18.90;49.30;;;;;;5069638;28;20490;-75
2023/04/09 03:31:37;;;;;;;31.60;19.67;;;18.90;49.30;;;;;;5078524;28;20477;-76
2023/04/09 03:34:05;;;;;;;30.90;20.63;;;18.90;49.40;;;;;;5072115;28;20480;-75
2023/04/09 03:36:33;;;;;;;28.57;20.00;;;18.90;49.40;;;;;;5082708;28;20538;-76
2023/04/09 03:39:01;;;;;;;29.17;18.70;;;18.80;49.90;;;;;;5071405;28;20542;-74
2023/04/09 03:41:29;;;;;;;29.90;19.97;;;18.80;50.00;;;;;;5072123;28;20456;-76
2023/04/09 03:43:57;;;;;;;30.70;20.20;;;18.80;49.40;;;;;;5074573;28;20446;-75
2023/04/09 03:46:25;;;;;;;28.83;19.30;;;18.90;49.40;;;;;;5078010;28;20442;-76
2023/04/09 03:48:55;;;;;;;33.10;20.50;;;18.90;49.40;;;;;;5081446;28;20468;-75
2023/04/09 03:51:23;;;;;;;29.70;18.90;;;18.80;49.20;;;;;;5072527;28;20452;-76
2023/04/09 03:53:51;;;;;;;30.70;19.07;;;18.80;49.30;;;;;;5069580;28;20456;-75
2023/04/09 03:56:18;;;;;;;32.33;19.70;;;18.80;49.30;;;;;;5073017;28;20448;-77
2023/04/09 03:58:48;;;;;;;30.73;20.50;;;18.80;49.40;;;;;;5072761;28;20466;-76
2023/04/09 04:01:16;;;;;;;31.10;20.50;;;18.80;49.40;;;;;;5062985;28;20458;-76
2023/04/09 04:03:44;;;;;;;27.07;18.37;;;18.80;49.40;;;;;;5076502;28;20449;-74
2023/04/09 04:06:14;;;;;;;29.10;18.60;;;18.70;49.20;;;;;;5074937;28;20484;-74
2023/04/09 04:08:43;;;;;;;29.20;18.97;;;18.80;49.40;;;;;;5067190;28;20526;-76
2023/04/09 04:11:11;;;;;;;30.43;19.70;;;18.70;49.40;;;;;;5068301;28;20474;-75
2023/04/09 04:13:39;;;;;;;34.37;20.50;;;18.70;49.20;;;;;;5067532;28;20465;-75
2023/04/09 04:16:08;;;;;;;28.73;19.50;;;18.70;49.30;;;;;;5071279;28;20437;-76
2023/04/09 04:18:36;;;;;;;35.03;20.53;;;18.70;49.30;;;;;;5064733;28;20473;-75
2023/04/09 04:21:04;;;;;;;30.17;19.20;;;18.70;49.30;;;;;;5064505;28;20435;-75
2023/04/09 04:23:33;;;;;;;31.30;19.03;;;18.70;49.40;;;;;;5074963;28;20457;-75
2023/04/09 04:26:02;;;;;;;30.40;19.83;;;18.70;49.30;;;;;;5069876;28;20444;-75
2023/04/09 04:28:29;;;;;;;32.43;19.50;;;18.70;49.30;;;;;;5072039;28;20463;-75
2023/04/09 04:30:57;;;;;;;27.20;19.03;;;18.70;49.40;;;;;;5072790;28;20433;-75
2023/04/09 04:33:25;;;;;;;28.17;19.50;;;18.70;49.90;;;;;;5072452;28;20444;-76
2023/04/09 04:35:53;;;;;;;32.90;20.27;;;18.70;49.30;;;;;;5075447;28;20448;-75
2023/04/09 04:38:20;;;;;;;30.50;19.30;;;18.60;49.20;;;;;;5060143;28;20510;-76
2023/04/09 04:40:50;;;;;;;31.30;19.03;;;18.70;49.30;;;;;;5070137;28;20441;-75
2023/04/09 04:43:18;;;;;;;28.80;18.50;;;18.60;49.30;;;;;;5072024;28;20441;-76
2023/04/09 04:45:46;;;;;;;32.37;19.27;;;18.60;49.30;;;;;;5067697;28;20457;-74
2023/04/09 04:48:14;;;;;;;28.30;19.23;;;18.60;49.40;;;;;;5072081;28;20473;-76
2023/04/09 04:50:42;;;;;;;28.60;19.50;;;18.60;49.30;;;;;;5071904;28;20476;-75
2023/04/09 04:53:10;;;;;;;34.17;20.47;;;18.60;49.30;;;;;;5070937;28;20458;-75
2023/04/09 04:55:38;;;;;;;28.73;19.00;;;18.60;49.20;;;;;;5070908;28;20461;-76
2023/04/09 04:58:08;;;;;;;29.27;19.70;;;18.60;49.30;;;;;;5072015;28;20457;-75
2023/04/09 05:00:35;;;;;;;28.90;19.07;;;18.60;49.30;;;;;;5072011;28;20443;-76
2023/04/09 05:03:03;;;;;;;30.37;19.80;;;18.60;49.30;;;;;;5071914;28;20476;-76
2023/04/09 05:05:31;;;;;;;31.00;19.57;;;18.60;49.30;;;;;;5072108;28;20444;-75
2023/04/09 05:07:59;;;;;;;30.87;19.90;;;18.60;49.30;;;;;;5072105;28;20437;-75
2023/04/09 05:10:27;;;;;;;27.10;19.00;;;18.60;49.30;;;;;;5070855;28;20533;-75
2023/04/09 05:12:55;;;;;;;34.47;19.87;;;18.60;49.30;;;;;;5063537;28;20454;-75
2023/04/09 05:15:24;;;;;;;29.37;18.47;;;18.60;49.30;;;;;;5057965;28;20453;-75
2023/04/09 05:17:52;;;;;;;29.30;18.70;;;18.60;49.20;;;;;;5059226;28;20455;-75
2023/04/09 05:20:20;;;;;;;28.70;19.60;;;18.60;49.20;;;;;;5062554;28;20473;-76
2023/04/09 05:22:48;;;;;;;29.30;20.20;;;18.60;49.20;;;;;;5071695;28;20442;-75
2023/04/09 05:25:16;;;;;;;28.47;18.83;;;18.60;49.30;;;;;;5063822;28;20445;-75
2023/04/09 05:27:44;;;;;;;29.60;19.07;;;18.60;49.20;;;;;;5068921;28;20458;-74
2023/04/09 05:30:12;;;;;;;29.97;19.40;;;18.60;49.20;;;;;;5067526;28;20470;-73
2023/04/09 05:32:42;;;;;;;28.93;19.20;;;18.60;49.20;;;;;;5070800;28;20458;-75
2023/04/09 05:35:10;;;;;;;30.33;19.73;;;18.60;49.20;;;;;;5071484;28;20476;-75
2023/04/09 05:37:38;;;;;;;28.30;19.37;;;18.60;49.20;;;;;;5070515;28;20457;-73
2023/04/09 05:40:07;;;;;;;26.40;18.33;;;18.60;49.20;;;;;;5072159;28;20479;-75
2023/04/09 05:42:35;;;;;;;27.27;19.17;;;18.60;49.30;;;;;;5077281;28;20476;-75
2023/04/09 05:45:04;;;;;;;29.23;19.47;;;18.60;49.20;;;;;;5074072;28;20461;-75
2023/04/09 05:47:32;;;;;;;29.87;19.70;;;18.60;49.00;;;;;;5069144;28;20453;-75
2023/04/09 05:50:02;;;;;;;33.07;19.97;;;18.60;49.00;;;;;;5064817;28;20478;-75
2023/04/09 05:52:30;;;;;;;29.70;19.27;;;18.60;49.00;;;;;;5071676;28;20453;-75
2023/04/09 05:54:57;;;;;;;28.00;18.80;;;18.60;49.10;;;;;;5074522;28;20449;-75
2023/04/09 05:57:26;;;;;;;31.17;19.77;;;18.60;49.00;;;;;;5071543;28;20492;-76
2023/04/09 05:59:54;;;;;;;28.97;19.87;;;18.60;49.00;;;;;;5075305;28;20468;-75
2023/04/09 06:02:23;;;;;;;27.83;19.90;;;18.70;49.00;;;;;;5074604;28;20452;-75
2023/04/09 06:04:52;;;;;;;27.77;18.73;;;18.70;49.00;;;;;;5075445;28;20469;-75
2023/04/09 06:07:21;;;;;;;27.50;18.67;;;18.70;49.00;;;;;;5068926;28;20458;-76
2023/04/09 06:09:49;;;;;;;27.97;19.33;;;18.70;49.00;;;;;;5074749;28;20480;-75
2023/04/09 06:12:17;;;;;;;29.00;19.10;;;18.70;48.90;;;;;;5073952;28;20487;-75
2023/04/09 06:14:45;;;;;;;28.07;19.23;;;18.80;48.90;;;;;;5070992;28;20458;-75
2023/04/09 06:17:13;;;;;;;27.03;19.00;;;18.70;48.80;;;;;;5068441;28;20461;-76
2023/04/09 06:19:41;;;;;;;28.83;19.17;;;18.80;48.80;;;;;;5070916;28;20469;-74
2023/04/09 06:22:09;;;;;;;26.93;18.63;;;18.80;48.80;;;;;;5073952;28;20441;-75
2023/04/09 06:24:39;;;;;;;26.40;18.53;;;18.80;48.60;;;;;;5071265;28;20444;-75
2023/04/09 06:27:07;;;;;;;29.03;19.30;;;18.90;48.80;;;;;;5065495;28;20457;-76
2023/04/09 06:29:35;;;;;;;28.67;18.57;;;18.90;48.70;;;;;;5073965;28;20465;-75
2023/04/09 06:32:04;;;;;;;29.67;19.13;;;18.90;48.70;;;;;;5074822;28;20468;-76
2023/04/09 06:34:32;;;;;;;27.47;18.40;;;18.90;48.60;;;;;;5071378;28;20456;-76
2023/04/09 06:37:00;;;;;;;27.63;18.17;;;18.90;48.70;;;;;;5075133;28;20449;-75
2023/04/09 06:39:28;;;;;;;27.67;18.43;;;19.00;48.60;;;;;;5071948;28;20469;-76
2023/04/09 06:41:57;;;;;;;26.07;18.40;;;19.00;48.50;;;;;;5076855;28;20456;-75
2023/04/09 06:44:24;;;;;;;27.20;18.47;;;19.00;48.60;;;;;;5078063;28;20445;-75
2023/04/09 06:46:52;;;;;;;26.03;17.53;;;19.00;48.60;;;;;;5075646;28;20457;-75
2023/04/09 06:49:20;;;;;;;27.30;18.97;;;19.10;48.50;;;;;;5072340;28;20469;-76
2023/04/09 06:51:50;;;;;;;25.17;16.90;;;19.10;48.40;;;;;;5069035;28;20465;-76
2023/04/09 06:54:18;;;;;;;26.03;17.17;;;19.10;48.40;;;;;;5067305;28;20456;-76
2023/04/09 06:56:46;;;;;;;24.07;16.87;;;19.20;48.40;;;;;;5073582;28;20448;-75
2023/04/09 06:59:16;;;;;;;25.00;17.60;;;19.20;48.20;;;;;;5071259;28;20466;-75
2023/04/09 07:01:44;;;;;;;26.33;18.20;;;19.30;48.20;;;;;;5059358;28;20450;-74
2023/04/09 07:04:12;;;;;;;23.90;16.63;;;19.30;48.00;;;;;;5070424;28;20449;-74
2023/04/09 07:06:40;;;;;;;25.47;17.13;;;19.30;47.90;;;;;;5070048;28;20444;-74
2023/04/09 07:09:08;;;;;;;28.43;18.33;;;19.30;48.00;;;;;;5080536;28;20476;-75
2023/04/09 07:11:39;;;;;;;25.30;17.50;;;19.30;47.90;;;;;;5064148;28;20469;-75
2023/04/09 07:14:07;;;;;;;25.43;17.20;;;19.30;48.00;;;;;;5057608;28;20473;-74
2023/04/09 07:16:36;;;;;;;26.30;17.03;;;19.40;48.00;;;;;;5071771;28;20458;-76
2023/04/09 07:19:06;;;;;;;24.97;16.70;;;19.40;48.00;;;;;;5066229;28;20552;-75
2023/04/09 07:21:34;;;;;;;23.40;16.77;;;19.50;47.70;;;;;;5070751;28;20452;-77
2023/04/09 07:24:02;;;;;;;25.43;17.60;;;19.60;47.80;;;;;;5073580;28;20448;-76
2023/04/09 07:26:30;;;;;;;23.37;16.83;;;19.60;47.70;;;;;;5063594;28;20453;-76
2023/04/09 07:28:58;;;;;;;26.60;17.90;;;19.70;47.80;;;;;;5070971;28;20468;-76
2023/04/09 07:31:26;;;;;;;24.03;16.93;;;19.70;47.60;;;;;;5070175;28;20471;-74
2023/04/09 07:33:56;;;;;;;25.60;17.30;;;19.80;47.50;;;;;;5071476;28;20905;-76
2023/04/09 07:36:24;;;;;;;24.53;16.43;;;19.80;47.40;;;;;;5075793;28;20484;-76
2023/04/09 07:38:52;;;;;;;22.57;16.20;;;19.80;47.40;;;;;;5071182;28;20485;-76
2023/04/09 07:41:21;;;;;;;24.47;16.90;;;19.90;47.30;;;;;;5061923;28;20469;-77
2023/04/09 07:43:50;;;;;;;27.07;16.47;;;19.90;47.30;;;;;;5068158;28;20452;-77
2023/04/09 07:46:20;;;;;;;23.10;16.07;;;20.00;47.40;;;;;;5073609;28;20453;-76
2023/04/09 07:48:49;;;;;;;23.50;16.50;;;20.00;47.30;;;;;;5072438;28;20515;-78
2023/04/09 07:51:19;;;;;;;23.57;16.77;;;20.10;47.30;;;;;;5068245;28;20469;-78
2023/04/09 07:53:47;;;;;;;23.27;16.53;;;20.20;47.30;;;;;;5076250;28;20472;-78
2023/04/09 07:56:15;;;;;;;22.50;15.13;;;20.30;47.20;;;;;;5074103;28;20426;-75
2023/04/09 07:58:44;;;;;;;23.03;16.17;;;20.40;47.20;;;;;;5071765;28;20485;-79
2023/04/09 08:01:12;;;;;;;22.70;15.83;;;20.50;47.10;;;;;;5072606;28;20442;-78
2023/04/09 08:03:43;;;;;;;23.07;16.17;;;20.60;47.20;;;;;;5075586;28;20458;-79
2023/04/09 08:06:12;;;;;;;24.10;16.57;;;20.70;47.20;;;;;;5082717;28;20502;-78
2023/04/09 08:08:42;;;;;;;24.10;16.73;;;20.80;47.20;;;;;;5070123;28;20469;-77
2023/04/09 08:11:10;;;;;;;22.30;15.30;;;20.90;47.10;;;;;;5065618;28;20495;-76
2023/04/09 08:13:39;;;;;;;22.33;16.23;;;21.10;47.30;;;;;;5064668;28;20445;-78
2023/04/09 08:16:07;;;;;;;21.80;15.43;;;21.20;47.20;;;;;;5071427;28;20442;-78
2023/04/09 08:18:35;;;;;;;20.90;15.67;;;21.40;47.20;;;;;;5069472;28;20476;-78
2023/04/09 08:21:05;;;;;;;21.53;14.90;;;21.50;47.30;;;;;;5070734;28;20457;-78
2023/04/09 08:23:33;;;;;;;22.67;14.97;;;21.60;47.20;;;;;;5064354;28;20416;-78
2023/04/09 08:26:02;;;;;;;19.10;14.20;;;21.80;47.20;;;;;;5069125;28;20450;-77
2023/04/09 08:28:30;;;;;;;22.60;15.10;;;21.90;47.30;;;;;;5062322;28;20473;-78
2023/04/09 08:30:58;;;;;;;22.17;15.00;;;22.10;47.30;;;;;;5069558;28;20469;-77
2023/04/09 08:33:26;;;;;;;20.03;14.80;;;22.20;47.10;;;;;;5070733;28;20421;-75
2023/04/09 08:35:54;;;;;;;22.37;15.33;;;22.40;47.20;;;;;;5070312;28;20454;-77
2023/04/09 08:38:22;;;;;;;22.27;14.33;;;22.60;47.10;;;;;;5071120;28;20473;-77
2023/04/09 08:40:50;;;;;;;21.43;15.13;;;22.70;47.00;;;;;;5064907;28;20451;-77
2023/04/09 08:43:19;;;;;;;17.27;13.93;;;22.90;46.80;;;;;;5070120;28;20536;-77
2023/04/09 08:45:47;;;;;;;18.30;13.83;;;23.10;46.80;;;;;;5071379;28;20432;-78
2023/04/09 08:48:16;;;;;;;20.57;14.93;;;23.20;46.70;;;;;;5070786;28;20461;-77
2023/04/09 08:50:45;;;;;;;20.33;14.50;;;23.40;46.60;;;;;;5070513;28;20454;-78
2023/04/09 08:53:13;;;;;;;21.87;14.43;;;23.60;46.50;;;;;;5076001;28;20459;-77
2023/04/09 08:55:44;;;;;;;18.07;14.57;;;23.80;46.60;;;;;;5069397;28;20465;-77
2023/04/09 08:58:12;;;;;;;20.03;14.90;;;23.90;46.40;;;;;;5072334;28;20465;-77
2023/04/09 09:00:42;;;;;;;21.40;14.77;;;24.20;46.50;;;;;;5067758;28;20445;-78
2023/04/09 09:03:11;;;;;;;17.40;13.97;;;24.30;46.40;;;;;;5064929;28;20447;-78
2023/04/09 09:05:41;;;;;;;18.90;14.70;;;24.40;46.20;;;;;;5069242;28;20821;-78
2023/04/09 09:08:09;;;;;;;20.53;14.80;;;24.70;46.10;;;;;;5066574;28;20459;-78
2023/04/09 09:10:38;;;;;;;23.33;14.40;;;24.80;46.10;;;;;;5069754;28;20436;-78
2023/04/09 09:13:17;;;;;;;18.77;14.70;;;25.00;46.00;;;;;;5071153;28;20469;-78
2023/04/09 09:15:49;;;;;;;20.60;14.67;;;25.20;45.80;;;;;;5065750;28;20462;-78
2023/04/09 09:18:17;;;;;;;18.23;14.40;;;25.40;45.80;;;;;;5069717;28;20493;-77
2023/04/09 09:20:46;;;;;;;16.87;13.60;;;25.60;45.50;;;;;;5066565;28;20477;-78
2023/04/09 09:23:15;;;;;;;16.20;14.00;;;25.80;45.50;;;;;;5068426;28;20453;-78
2023/04/09 09:25:43;;;;;;;18.17;14.53;;;26.00;45.50;;;;;;5069727;28;20439;-78
2023/04/09 09:28:11;;;;;;;19.10;14.27;;;26.10;45.10;;;;;;5070545;28;20472;-78
2023/04/09 09:30:40;;;;;;;18.80;14.30;;;26.30;45.10;;;;;;5070594;28;20422;-77
2023/04/09 09:33:10;;;;;;;16.67;12.97;;;26.50;44.80;;;;;;5069684;28;20982;-76
2023/04/09 09:35:49;;;;;;;16.73;13.27;;;26.70;44.60;;;;;;5069004;28;20465;-76
2023/04/09 09:38:17;;;;;;;17.90;14.33;;;26.80;44.20;;;;;;5068120;28;20485;-76
2023/04/09 09:40:45;;;;;;;18.47;14.30;;;27.10;44.30;;;;;;5065131;28;20432;-78
2023/04/09 09:43:14;;;;;;;15.73;13.97;;;27.20;44.10;;;;;;5070594;28;20435;-78
2023/04/09 09:45:43;;;;;;;15.20;13.70;;;27.50;44.10;;;;;;5077512;28;20472;-79
2023/04/09 09:48:13;;;;;;;17.20;13.47;;;27.70;43.90;;;;;;5074987;28;20452;-77
2023/04/09 09:50:42;;;;;;;16.27;12.97;;;27.90;43.50;;;;;;5064755;28;20520;-78
2023/04/09 09:53:11;;;;;;;16.00;13.90;;;28.20;43.20;;;;;;5068350;28;20444;-78
2023/04/09 09:55:40;;;;;;;17.50;12.47;;;28.30;43.10;;;;;;5065078;28;20442;-78
2023/04/09 09:58:12;;;;;;;16.93;13.10;;;28.60;42.90;;;;;;5070089;28;20443;-76
2023/04/09 10:00:40;;;;;;;19.37;12.73;;;28.80;42.70;;;;;;5066217;28;20417;-78
2023/04/09 10:03:14;;;;;;;13.93;12.07;;;28.90;42.20;;;;;;5066619;28;20532;-78
2023/04/09 10:05:42;;;;;;;13.90;12.10;;;28.90;42.00;;;;;;5068712;28;20471;-78
2023/04/09 10:08:10;;;;;;;15.60;12.20;;;29.20;42.00;;;;;;5067496;28;20441;-77
2023/04/09 10:10:39;;;;;;;13.53;12.10;;;29.40;41.80;;;;;;5070114;28;20419;-78
2023/04/09 10:13:06;;;;;;;13.90;12.50;;;29.60;41.40;;;;;;5063203;28;20470;-77
2023/04/09 10:15:34;;;;;;;13.10;11.70;;;29.70;40.90;;;;;;5066963;28;20453;-77
2023/04/09 10:18:02;;;;;;;12.47;11.23;;;29.60;40.50;;;;;;5069781;28;20477;-78
2023/04/09 10:20:34;;;;;;;12.83;11.30;;;29.70;40.60;;;;;;5073084;28;20464;-78
2023/04/09 10:23:04;;;;;;;14.07;12.10;;;29.90;40.70;;;;;;5071104;28;20453;-78
2023/04/09 10:25:33;;;;;;;13.33;11.53;;;30.20;40.50;;;;;;5071978;28;20449;-78
2023/04/09 10:28:01;;;;;;;13.30;11.90;;;30.50;40.20;;;;;;5072709;28;20545;-76
2023/04/09 10:30:32;;;;;;;13.87;11.70;;;30.70;39.80;;;;;;5069858;28;20442;-75
2023/04/09 10:33:10;;;;;;;13.23;10.83;;;31.00;39.50;;;;;;5071847;28;20458;-78
2023/04/09 10:35:41;;;;;;;13.03;11.60;;;31.00;38.90;;;;;;5074160;28;20429;-78
2023/04/09 10:38:09;;;;;;;12.50;11.20;;;30.90;38.80;;;;;;5076140;28;20491;-76
2023/04/09 10:40:41;;;;;;;12.30;10.93;;;30.80;38.70;;;;;;5085346;28;20419;-77
2023/04/09 10:43:09;;;;;;;12.47;11.27;;;30.70;38.60;;;;;;5073442;28;20446;-78
2023/04/09 10:45:41;;;;;;;12.47;11.27;;;30.80;39.00;;;;;;5073057;28;20447;-75
2023/04/09 10:48:13;;;;;;;12.40;11.10;;;31.00;39.00;;;;;;5068570;28;20477;-78
2023/04/09 10:50:45;;;;;;;12.83;11.37;;;31.20;38.60;;;;;;5073840;28;20453;-77
2023/04/09 10:53:23;;;;;;;12.03;10.60;;;31.20;38.10;;;;;;5069437;28;20465;-75
2023/04/09 10:55:52;;;;;;;12.60;10.63;;;31.20;38.10;;;;;;5070982;28;20446;-78
2023/04/09 10:58:20;;;;;;;12.60;11.30;;;31.20;37.70;;;;;;5067783;28;20465;-77
2023/04/09 11:00:49;;;;;;;11.77;10.57;;;31.30;37.80;;;;;;5072258;28;20453;-77
2023/04/09 11:03:22;;;;;;;12.70;10.10;;;31.20;37.60;;;;;;5060237;28;20806;-78
2023/04/09 11:05:58;;;;;;;11.67;10.47;;;31.20;37.60;;;;;;5081021;28;20456;-78
2023/04/09 11:08:28;;;;;;;11.37;10.27;;;31.30;37.90;;;;;;5068249;28;20889;-77
2023/04/09 11:10:59;;;;;;;12.33;11.17;;;31.40;37.40;;;;;;5068690;28;20533;-78
2023/04/09 11:13:29;;;;;;;14.47;10.03;;;31.60;37.50;;;;;;5061413;28;20577;-76
2023/04/09 11:15:57;;;;;;;11.70;10.50;;;32.00;37.30;;;;;;5069958;28;20464;-78
2023/04/09 11:18:25;;;;;;;11.20;10.20;;;32.30;36.30;;;;;;5065549;28;20479;-78
2023/04/09 11:20:58;;;;;;;11.30;10.20;;;32.70;36.20;;;;;;5071849;28;20461;-78
2023/04/09 11:23:26;;;;;;;10.87;9.77;;;32.50;35.40;;;;;;5079436;28;20453;-78
2023/04/09 11:25:55;;;;;;;10.70;9.70;;;33.70;36.10;;;;;;5063054;28;20824;-78
2023/04/09 11:28:23;;;;;;;9.97;9.07;;;35.50;34.00;;;;;;5072458;28;20470;-79
2023/04/09 11:30:51;;;;;;;9.00;8.30;;;37.00;32.20;;;;;;5081585;28;20537;-78
2023/04/09 11:33:20;;;;;;;9.40;8.53;;;38.10;30.60;;;;;;5077816;28;20514;-77
2023/04/09 11:35:48;;;;;;;8.30;7.57;;;39.10;29.60;;;;;;5064888;28;20454;-78
2023/04/09 11:38:17;;;;;;;7.97;7.47;;;39.90;28.30;;;;;;5081098;28;20500;-79
2023/04/09 11:40:47;;;;;;;7.37;6.97;;;40.20;27.90;;;;;;5071158;28;20440;-79
2023/04/09 11:43:16;;;;;;;7.70;7.00;;;40.30;27.70;;;;;;5070636;28;20445;-78
2023/04/09 11:45:46;;;;;;;8.10;7.50;;;40.30;27.10;;;;;;5067956;28;20449;-78
2023/04/09 11:48:14;;;;;;;7.43;6.93;;;39.80;26.60;;;;;;5070815;28;20563;-79
2023/04/09 11:50:42;;;;;;;7.73;7.23;;;39.90;27.80;;;;;;5071712;28;20456;-79
2023/04/09 11:53:18;;;;;;;7.57;6.97;;;40.50;27.20;;;;;;5072873;28;20488;-79
2023/04/09 11:55:48;;;;;;;7.10;6.67;;;40.80;27.10;;;;;;5080884;28;20430;-78
2023/04/09 11:58:16;;;;;;;6.50;6.20;;;41.10;26.40;;;;;;5070583;28;20473;-76
2023/04/09 12:00:44;;;;;;;6.10;5.60;;;41.90;26.10;;;;;;5078601;28;20467;-77
2023/04/09 12:03:14;;;;;;;5.93;5.63;;;42.70;25.80;;;;;;5080709;28;20448;-77
2023/04/09 12:05:45;;;;;;;6.50;6.10;;;43.10;24.70;;;;;;5079176;28;20466;-79
2023/04/09 12:08:22;;;;;;;6.00;5.70;;;42.70;24.50;;;;;;5063080;28;20467;-79
2023/04/09 12:10:51;;;;;;;6.60;6.20;;;41.80;24.80;;;;;;5072146;28;20512;-79
2023/04/09 12:13:20;;;;;;;7.50;7.00;;;41.00;25.10;;;;;;5068697;28;20478;-78
2023/04/09 12:15:49;;;;;;;7.27;6.63;;;39.70;25.90;;;;;;5071145;28;20471;-78
2023/04/09 12:18:17;;;;;;;7.07;6.47;;;38.50;26.80;;;;;;5069354;28;20488;-78
2023/04/09 12:20:48;;;;;;;7.40;6.90;;;38.00;28.70;;;;;;5071593;28;20464;-77
2023/04/09 12:23:16;;;;;;;7.93;7.33;;;37.90;27.30;;;;;;5076151;28;20459;-78
2023/04/09 12:25:46;;;;;;;8.07;7.47;;;37.40;27.80;;;;;;5069177;28;20454;-78
2023/04/09 12:28:16;;;;;;;7.40;6.77;;;38.70;28.30;;;;;;5071647;28;20542;-79
2023/04/09 12:30:44;;;;;;;7.20;6.53;;;38.10;27.30;;;;;;5065097;28;20459;-78
2023/04/09 12:33:12;;;;;;;6.80;6.30;;;37.50;27.70;;;;;;5070370;28;20480;-77
2023/04/09 12:35:40;;;;;;;6.57;5.83;;;39.20;28.40;;;;;;5063376;28;20430;-78